sensor_id;sensor_type;location;lat;lon;timestamp;P1;durP1;ratioP1;P2;durP2;ratioP2
21503;SDS011;10913;51.992;9.228;2022-11-15T00:00:46;11.25;;;9.27;;
21503;SDS011;10913;51.992;9.228;2022-11-15T00:03:15;12.30;;;9.40;;
21503;SDS011;10913;51.992;9.228;2022-11-15T00:05:48;11.55;;;9.30;;
21503;SDS011;10913;51.992;9.228;2022-11-15T00:08:14;11.20;;;9.02;;
21503;SDS011;10913;51.992;9.228;2022-11-15T00:10:39;10.57;;;9.13;;
21503;SDS011;10913;51.992;9.228;2022-11-15T00:13:11;10.88;;;8.73;;
21503;SDS011;10913;51.992;9.228;2022-11-15T00:15:38;12.13;;;8.90;;
21503;SDS011;10913;51.992;9.228;2022-11-15T00:18:05;12.48;;;9.00;;
21503;SDS011;10913;51.992;9.228;2022-11-15T00:20:35;11.27;;;8.98;;
21503;SDS011;10913;51.992;9.228;2022-11-15T00:23:02;14.45;;;11.20;;
21503;SDS011;10913;51.992;9.228;2022-11-15T00:25:28;12.63;;;10.10;;
21503;SDS011;10913;51.992;9.228;2022-11-15T00:27:57;14.38;;;9.57;;
21503;SDS011;10913;51.992;9.228;2022-11-15T00:30:24;14.10;;;10.35;;
21503;SDS011;10913;51.992;9.228;2022-11-15T00:32:49;13.45;;;9.80;;
21503;SDS011;10913;51.992;9.228;2022-11-15T00:35:15;12.50;;;9.13;;
21503;SDS011;10913;51.992;9.228;2022-11-15T00:37:40;11.63;;;9.50;;
21503;SDS011;10913;51.992;9.228;2022-11-15T00:40:06;14.27;;;10.40;;
21503;SDS011;10913;51.992;9.228;2022-11-15T00:42:32;14.15;;;9.93;;
21503;SDS011;10913;51.992;9.228;2022-11-15T00:44:58;13.98;;;9.43;;
21503;SDS011;10913;51.992;9.228;2022-11-15T00:47:23;13.90;;;9.45;;
21503;SDS011;10913;51.992;9.228;2022-11-15T00:49:48;13.43;;;10.27;;
21503;SDS011;10913;51.992;9.228;2022-11-15T00:52:14;12.15;;;9.63;;
21503;SDS011;10913;51.992;9.228;2022-11-15T00:54:39;13.30;;;9.40;;
21503;SDS011;10913;51.992;9.228;2022-11-15T00:57:04;15.10;;;10.10;;
21503;SDS011;10913;51.992;9.228;2022-11-15T00:59:30;12.70;;;9.05;;
21503;SDS011;10913;51.992;9.228;2022-11-15T01:01:55;12.57;;;9.38;;
21503;SDS011;10913;51.992;9.228;2022-11-15T01:04:21;14.23;;;10.23;;
21503;SDS011;10913;51.992;9.228;2022-11-15T01:06:46;16.67;;;12.23;;
21503;SDS011;10913;51.992;9.228;2022-11-15T01:09:11;12.05;;;10.25;;
21503;SDS011;10913;51.992;9.228;2022-11-15T01:11:38;12.57;;;9.63;;
21503;SDS011;10913;51.992;9.228;2022-11-15T01:14:04;11.82;;;9.10;;
21503;SDS011;10913;51.992;9.228;2022-11-15T01:16:29;15.10;;;11.63;;
21503;SDS011;10913;51.992;9.228;2022-11-15T01:18:54;17.45;;;12.30;;
21503;SDS011;10913;51.992;9.228;2022-11-15T01:21:20;14.30;;;11.68;;
21503;SDS011;10913;51.992;9.228;2022-11-15T01:23:46;13.45;;;10.60;;
21503;SDS011;10913;51.992;9.228;2022-11-15T01:26:13;17.30;;;12.20;;
21503;SDS011;10913;51.992;9.228;2022-11-15T01:28:40;13.20;;;10.80;;
21503;SDS011;10913;51.992;9.228;2022-11-15T01:31:08;13.13;;;10.32;;
21503;SDS011;10913;51.992;9.228;2022-11-15T01:33:36;14.93;;;10.98;;
21503;SDS011;10913;51.992;9.228;2022-11-15T01:36:06;15.35;;;10.50;;
21503;SDS011;10913;51.992;9.228;2022-11-15T01:38:33;13.68;;;10.65;;
21503;SDS011;10913;51.992;9.228;2022-11-15T01:40:59;13.90;;;10.38;;
21503;SDS011;10913;51.992;9.228;2022-11-15T01:43:26;14.65;;;9.88;;
21503;SDS011;10913;51.992;9.228;2022-11-15T01:45:58;12.15;;;9.82;;
21503;SDS011;10913;51.992;9.228;2022-11-15T01:48:29;13.60;;;10.75;;
21503;SDS011;10913;51.992;9.228;2022-11-15T01:50:58;13.00;;;9.98;;
21503;SDS011;10913;51.992;9.228;2022-11-15T01:53:30;17.27;;;11.02;;
21503;SDS011;10913;51.992;9.228;2022-11-15T01:55:59;16.55;;;11.30;;
21503;SDS011;10913;51.992;9.228;2022-11-15T01:58:29;16.25;;;11.02;;
21503;SDS011;10913;51.992;9.228;2022-11-15T02:00:55;14.82;;;10.82;;
21503;SDS011;10913;51.992;9.228;2022-11-15T02:03:20;15.48;;;11.95;;
21503;SDS011;10913;51.992;9.228;2022-11-15T02:05:51;18.77;;;12.30;;
21503;SDS011;10913;51.992;9.228;2022-11-15T02:08:18;15.80;;;12.48;;
21503;SDS011;10913;51.992;9.228;2022-11-15T02:10:46;16.92;;;12.23;;
21503;SDS011;10913;51.992;9.228;2022-11-15T02:13:13;18.90;;;13.02;;
21503;SDS011;10913;51.992;9.228;2022-11-15T02:15:41;16.05;;;12.38;;
21503;SDS011;10913;51.992;9.228;2022-11-15T02:18:24;16.98;;;11.80;;
21503;SDS011;10913;51.992;9.228;2022-11-15T02:23:48;18.23;;;12.40;;
21503;SDS011;10913;51.992;9.228;2022-11-15T02:32:29;17.17;;;12.65;;
21503;SDS011;10913;51.992;9.228;2022-11-15T02:38:00;17.85;;;13.40;;
21503;SDS011;10913;51.992;9.228;2022-11-15T02:43:28;17.05;;;12.98;;
21503;SDS011;10913;51.992;9.228;2022-11-15T02:49:18;20.65;;;13.45;;
21503;SDS011;10913;51.992;9.228;2022-11-15T02:51:45;18.25;;;12.45;;
21503;SDS011;10913;51.992;9.228;2022-11-15T02:54:28;17.23;;;12.93;;
21503;SDS011;10913;51.992;9.228;2022-11-15T02:56:56;15.05;;;11.88;;
21503;SDS011;10913;51.992;9.228;2022-11-15T03:05:58;14.07;;;11.88;;
21503;SDS011;10913;51.992;9.228;2022-11-15T03:13:40;14.85;;;10.57;;
21503;SDS011;10913;51.992;9.228;2022-11-15T03:19:08;14.90;;;11.38;;
21503;SDS011;10913;51.992;9.228;2022-11-15T03:21:39;15.35;;;11.52;;
21503;SDS011;10913;51.992;9.228;2022-11-15T03:24:06;14.95;;;11.63;;
21503;SDS011;10913;51.992;9.228;2022-11-15T03:26:34;14.80;;;10.73;;
21503;SDS011;10913;51.992;9.228;2022-11-15T03:29:04;15.98;;;11.18;;
21503;SDS011;10913;51.992;9.228;2022-11-15T03:31:36;14.93;;;11.18;;
21503;SDS011;10913;51.992;9.228;2022-11-15T03:37:01;14.77;;;11.15;;
21503;SDS011;10913;51.992;9.228;2022-11-15T03:39:26;12.55;;;9.35;;
21503;SDS011;10913;51.992;9.228;2022-11-15T03:41:57;14.38;;;10.70;;
21503;SDS011;10913;51.992;9.228;2022-11-15T03:44:51;13.52;;;10.55;;
21503;SDS011;10913;51.992;9.228;2022-11-15T03:47:23;15.82;;;10.27;;
21503;SDS011;10913;51.992;9.228;2022-11-15T03:50:04;12.43;;;9.55;;
21503;SDS011;10913;51.992;9.228;2022-11-15T03:52:40;12.38;;;9.68;;
21503;SDS011;10913;51.992;9.228;2022-11-15T03:55:08;12.10;;;9.48;;
21503;SDS011;10913;51.992;9.228;2022-11-15T03:57:36;13.05;;;9.45;;
21503;SDS011;10913;51.992;9.228;2022-11-15T04:00:02;11.45;;;9.65;;
21503;SDS011;10913;51.992;9.228;2022-11-15T04:02:28;11.10;;;9.30;;
21503;SDS011;10913;51.992;9.228;2022-11-15T04:04:54;13.30;;;9.80;;
21503;SDS011;10913;51.992;9.228;2022-11-15T04:07:19;11.05;;;9.05;;
21503;SDS011;10913;51.992;9.228;2022-11-15T04:09:44;13.45;;;9.77;;
21503;SDS011;10913;51.992;9.228;2022-11-15T04:12:35;11.15;;;9.15;;
21503;SDS011;10913;51.992;9.228;2022-11-15T04:17:42;13.57;;;8.90;;
21503;SDS011;10913;51.992;9.228;2022-11-15T04:20:14;11.02;;;9.25;;
21503;SDS011;10913;51.992;9.228;2022-11-15T04:23:00;12.25;;;8.85;;
21503;SDS011;10913;51.992;9.228;2022-11-15T04:25:45;11.15;;;8.63;;
21503;SDS011;10913;51.992;9.228;2022-11-15T04:28:15;12.70;;;9.15;;
21503;SDS011;10913;51.992;9.228;2022-11-15T04:30:40;9.48;;;8.23;;
21503;SDS011;10913;51.992;9.228;2022-11-15T04:33:05;10.88;;;8.02;;
21503;SDS011;10913;51.992;9.228;2022-11-15T04:35:31;11.93;;;8.60;;
21503;SDS011;10913;51.992;9.228;2022-11-15T04:37:57;10.25;;;8.02;;
21503;SDS011;10913;51.992;9.228;2022-11-15T04:40:23;12.68;;;8.25;;
21503;SDS011;10913;51.992;9.228;2022-11-15T04:42:48;10.75;;;8.00;;
21503;SDS011;10913;51.992;9.228;2022-11-15T04:45:14;10.48;;;8.60;;
21503;SDS011;10913;51.992;9.228;2022-11-15T04:47:39;10.95;;;7.80;;
21503;SDS011;10913;51.992;9.228;2022-11-15T04:50:04;10.07;;;8.00;;
21503;SDS011;10913;51.992;9.228;2022-11-15T04:52:30;10.10;;;8.02;;
21503;SDS011;10913;51.992;9.228;2022-11-15T04:54:55;10.45;;;7.68;;
21503;SDS011;10913;51.992;9.228;2022-11-15T04:57:21;9.68;;;7.35;;
21503;SDS011;10913;51.992;9.228;2022-11-15T04:59:46;9.93;;;7.18;;
21503;SDS011;10913;51.992;9.228;2022-11-15T05:02:12;9.27;;;7.03;;
21503;SDS011;10913;51.992;9.228;2022-11-15T05:04:37;9.60;;;7.60;;
21503;SDS011;10913;51.992;9.228;2022-11-15T05:07:02;9.35;;;7.28;;
21503;SDS011;10913;51.992;9.228;2022-11-15T05:09:30;8.57;;;6.93;;
21503;SDS011;10913;51.992;9.228;2022-11-15T05:11:56;9.32;;;7.00;;
21503;SDS011;10913;51.992;9.228;2022-11-15T05:14:22;10.70;;;7.97;;
21503;SDS011;10913;51.992;9.228;2022-11-15T05:16:47;9.82;;;7.90;;
21503;SDS011;10913;51.992;9.228;2022-11-15T05:19:13;10.52;;;7.80;;
21503;SDS011;10913;51.992;9.228;2022-11-15T05:21:38;9.73;;;7.80;;
21503;SDS011;10913;51.992;9.228;2022-11-15T05:24:04;8.80;;;7.40;;
21503;SDS011;10913;51.992;9.228;2022-11-15T05:26:30;9.25;;;6.95;;
21503;SDS011;10913;51.992;9.228;2022-11-15T05:28:56;7.95;;;6.97;;
21503;SDS011;10913;51.992;9.228;2022-11-15T05:31:23;13.02;;;7.70;;
21503;SDS011;10913;51.992;9.228;2022-11-15T05:33:49;11.18;;;7.70;;
21503;SDS011;10913;51.992;9.228;2022-11-15T05:36:29;9.82;;;7.05;;
21503;SDS011;10913;51.992;9.228;2022-11-15T05:38:59;8.05;;;6.88;;
21503;SDS011;10913;51.992;9.228;2022-11-15T05:41:34;10.35;;;7.82;;
21503;SDS011;10913;51.992;9.228;2022-11-15T05:44:04;11.25;;;7.40;;
21503;SDS011;10913;51.992;9.228;2022-11-15T05:46:32;9.20;;;7.55;;
21503;SDS011;10913;51.992;9.228;2022-11-15T05:48:59;10.02;;;7.75;;
21503;SDS011;10913;51.992;9.228;2022-11-15T05:51:25;11.90;;;8.63;;
21503;SDS011;10913;51.992;9.228;2022-11-15T05:53:54;10.75;;;7.60;;
21503;SDS011;10913;51.992;9.228;2022-11-15T05:56:23;9.13;;;7.60;;
21503;SDS011;10913;51.992;9.228;2022-11-15T05:58:49;10.00;;;7.82;;
21503;SDS011;10913;51.992;9.228;2022-11-15T06:01:20;10.07;;;7.13;;
21503;SDS011;10913;51.992;9.228;2022-11-15T06:03:45;10.10;;;7.65;;
21503;SDS011;10913;51.992;9.228;2022-11-15T06:06:11;9.93;;;8.05;;
21503;SDS011;10913;51.992;9.228;2022-11-15T06:08:36;12.77;;;8.38;;
21503;SDS011;10913;51.992;9.228;2022-11-15T06:11:05;9.10;;;7.45;;
21503;SDS011;10913;51.992;9.228;2022-11-15T06:13:32;9.50;;;7.55;;
21503;SDS011;10913;51.992;9.228;2022-11-15T06:15:58;12.98;;;7.65;;
21503;SDS011;10913;51.992;9.228;2022-11-15T06:18:23;10.38;;;7.32;;
21503;SDS011;10913;51.992;9.228;2022-11-15T06:20:49;11.32;;;8.43;;
21503;SDS011;10913;51.992;9.228;2022-11-15T06:23:14;13.57;;;8.90;;
21503;SDS011;10913;51.992;9.228;2022-11-15T06:25:40;13.73;;;10.23;;
21503;SDS011;10913;51.992;9.228;2022-11-15T06:28:05;12.60;;;9.63;;
21503;SDS011;10913;51.992;9.228;2022-11-15T06:30:30;11.93;;;8.40;;
21503;SDS011;10913;51.992;9.228;2022-11-15T06:33:00;11.55;;;7.57;;
21503;SDS011;10913;51.992;9.228;2022-11-15T06:35:27;9.27;;;7.10;;
21503;SDS011;10913;51.992;9.228;2022-11-15T06:37:52;9.30;;;6.70;;
21503;SDS011;10913;51.992;9.228;2022-11-15T06:40:18;9.40;;;7.18;;
21503;SDS011;10913;51.992;9.228;2022-11-15T06:42:43;10.25;;;6.63;;
21503;SDS011;10913;51.992;9.228;2022-11-15T06:45:09;6.93;;;5.43;;
21503;SDS011;10913;51.992;9.228;2022-11-15T06:47:34;9.80;;;6.50;;
21503;SDS011;10913;51.992;9.228;2022-11-15T06:50:00;9.13;;;6.72;;
21503;SDS011;10913;51.992;9.228;2022-11-15T06:52:25;9.77;;;7.03;;
21503;SDS011;10913;51.992;9.228;2022-11-15T06:54:50;9.38;;;6.55;;
21503;SDS011;10913;51.992;9.228;2022-11-15T06:57:16;7.70;;;5.80;;
21503;SDS011;10913;51.992;9.228;2022-11-15T06:59:41;7.90;;;6.20;;
21503;SDS011;10913;51.992;9.228;2022-11-15T07:02:11;7.47;;;5.40;;
21503;SDS011;10913;51.992;9.228;2022-11-15T07:04:38;6.75;;;5.95;;
21503;SDS011;10913;51.992;9.228;2022-11-15T07:07:03;8.07;;;5.78;;
21503;SDS011;10913;51.992;9.228;2022-11-15T07:09:28;8.68;;;6.40;;
21503;SDS011;10913;51.992;9.228;2022-11-15T07:11:54;7.88;;;5.93;;
21503;SDS011;10913;51.992;9.228;2022-11-15T07:14:19;7.35;;;5.93;;
21503;SDS011;10913;51.992;9.228;2022-11-15T07:16:44;6.30;;;5.18;;
21503;SDS011;10913;51.992;9.228;2022-11-15T07:19:10;6.53;;;5.60;;
21503;SDS011;10913;51.992;9.228;2022-11-15T07:21:35;6.78;;;5.53;;
21503;SDS011;10913;51.992;9.228;2022-11-15T07:24:01;7.25;;;5.40;;
21503;SDS011;10913;51.992;9.228;2022-11-15T07:26:28;7.28;;;5.55;;
21503;SDS011;10913;51.992;9.228;2022-11-15T07:28:54;6.97;;;5.68;;
21503;SDS011;10913;51.992;9.228;2022-11-15T07:31:19;7.80;;;5.68;;
21503;SDS011;10913;51.992;9.228;2022-11-15T07:33:45;6.13;;;5.38;;
21503;SDS011;10913;51.992;9.228;2022-11-15T07:36:10;7.05;;;5.70;;
21503;SDS011;10913;51.992;9.228;2022-11-15T07:38:36;7.47;;;5.80;;
21503;SDS011;10913;51.992;9.228;2022-11-15T07:41:02;8.20;;;5.93;;
21503;SDS011;10913;51.992;9.228;2022-11-15T07:43:29;9.40;;;6.65;;
21503;SDS011;10913;51.992;9.228;2022-11-15T07:45:55;8.30;;;6.65;;
21503;SDS011;10913;51.992;9.228;2022-11-15T07:48:22;7.00;;;6.25;;
21503;SDS011;10913;51.992;9.228;2022-11-15T07:50:47;7.50;;;6.40;;
21503;SDS011;10913;51.992;9.228;2022-11-15T07:53:13;6.40;;;5.57;;
21503;SDS011;10913;51.992;9.228;2022-11-15T07:55:39;7.40;;;5.63;;
21503;SDS011;10913;51.992;9.228;2022-11-15T07:58:06;7.30;;;5.53;;
21503;SDS011;10913;51.992;9.228;2022-11-15T08:00:34;6.25;;;5.05;;
21503;SDS011;10913;51.992;9.228;2022-11-15T08:05:33;6.50;;;5.22;;
21503;SDS011;10913;51.992;9.228;2022-11-15T08:07:59;6.10;;;4.70;;
21503;SDS011;10913;51.992;9.228;2022-11-15T08:10:25;7.53;;;5.53;;
21503;SDS011;10913;51.992;9.228;2022-11-15T08:12:58;6.95;;;5.20;;
21503;SDS011;10913;51.992;9.228;2022-11-15T08:15:23;5.05;;;4.55;;
21503;SDS011;10913;51.992;9.228;2022-11-15T08:17:53;7.32;;;5.05;;
21503;SDS011;10913;51.992;9.228;2022-11-15T08:20:19;6.72;;;4.57;;
21503;SDS011;10913;51.992;9.228;2022-11-15T08:22:44;7.68;;;4.30;;
21503;SDS011;10913;51.992;9.228;2022-11-15T08:25:10;5.35;;;4.32;;
21503;SDS011;10913;51.992;9.228;2022-11-15T08:27:35;6.53;;;4.50;;
21503;SDS011;10913;51.992;9.228;2022-11-15T08:30:00;5.82;;;4.45;;
21503;SDS011;10913;51.992;9.228;2022-11-15T08:32:26;5.75;;;4.25;;
21503;SDS011;10913;51.992;9.228;2022-11-15T08:34:52;4.55;;;3.50;;
21503;SDS011;10913;51.992;9.228;2022-11-15T08:37:17;3.92;;;3.47;;
21503;SDS011;10913;51.992;9.228;2022-11-15T08:39:43;3.28;;;2.97;;
21503;SDS011;10913;51.992;9.228;2022-11-15T08:42:09;3.28;;;2.67;;
21503;SDS011;10913;51.992;9.228;2022-11-15T08:44:34;3.08;;;2.78;;
21503;SDS011;10913;51.992;9.228;2022-11-15T08:46:59;3.20;;;2.85;;
21503;SDS011;10913;51.992;9.228;2022-11-15T08:49:25;3.13;;;2.53;;
21503;SDS011;10913;51.992;9.228;2022-11-15T08:51:50;3.95;;;2.80;;
21503;SDS011;10913;51.992;9.228;2022-11-15T08:54:15;4.07;;;2.60;;
21503;SDS011;10913;51.992;9.228;2022-11-15T08:56:41;3.70;;;2.90;;
21503;SDS011;10913;51.992;9.228;2022-11-15T08:59:06;3.72;;;2.75;;
21503;SDS011;10913;51.992;9.228;2022-11-15T09:01:32;3.45;;;2.30;;
21503;SDS011;10913;51.992;9.228;2022-11-15T09:03:57;4.53;;;2.53;;
21503;SDS011;10913;51.992;9.228;2022-11-15T09:06:22;3.10;;;2.42;;
21503;SDS011;10913;51.992;9.228;2022-11-15T09:08:48;2.58;;;2.10;;
21503;SDS011;10913;51.992;9.228;2022-11-15T09:11:13;3.30;;;2.30;;
21503;SDS011;10913;51.992;9.228;2022-11-15T09:13:41;2.60;;;2.40;;
21503;SDS011;10913;51.992;9.228;2022-11-15T09:16:06;2.97;;;2.50;;
21503;SDS011;10913;51.992;9.228;2022-11-15T09:18:32;5.00;;;2.47;;
21503;SDS011;10913;51.992;9.228;2022-11-15T09:20:58;3.25;;;2.55;;
21503;SDS011;10913;51.992;9.228;2022-11-15T09:23:24;2.83;;;2.60;;
21503;SDS011;10913;51.992;9.228;2022-11-15T09:25:51;2.65;;;2.45;;
21503;SDS011;10913;51.992;9.228;2022-11-15T09:28:17;2.28;;;2.08;;
21503;SDS011;10913;51.992;9.228;2022-11-15T09:30:43;3.20;;;2.60;;
21503;SDS011;10913;51.992;9.228;2022-11-15T09:33:09;2.60;;;2.40;;
21503;SDS011;10913;51.992;9.228;2022-11-15T09:35:36;2.75;;;2.42;;
21503;SDS011;10913;51.992;9.228;2022-11-15T09:38:01;2.80;;;2.60;;
21503;SDS011;10913;51.992;9.228;2022-11-15T09:40:29;3.55;;;2.40;;
21503;SDS011;10913;51.992;9.228;2022-11-15T09:47:55;3.35;;;2.72;;
21503;SDS011;10913;51.992;9.228;2022-11-15T09:50:42;4.05;;;2.67;;
21503;SDS011;10913;51.992;9.228;2022-11-15T09:53:13;2.90;;;2.40;;
21503;SDS011;10913;51.992;9.228;2022-11-15T09:55:47;3.47;;;2.42;;
21503;SDS011;10913;51.992;9.228;2022-11-15T09:58:36;4.00;;;3.15;;
21503;SDS011;10913;51.992;9.228;2022-11-15T10:01:14;3.92;;;2.65;;
21503;SDS011;10913;51.992;9.228;2022-11-15T10:03:44;4.80;;;2.60;;
21503;SDS011;10913;51.992;9.228;2022-11-15T10:06:16;3.20;;;2.90;;
21503;SDS011;10913;51.992;9.228;2022-11-15T10:11:27;3.47;;;3.17;;
21503;SDS011;10913;51.992;9.228;2022-11-15T10:13:59;4.68;;;3.17;;
21503;SDS011;10913;51.992;9.228;2022-11-15T10:19:23;3.45;;;3.00;;
21503;SDS011;10913;51.992;9.228;2022-11-15T10:24:40;3.80;;;2.50;;
21503;SDS011;10913;51.992;9.228;2022-11-15T10:27:09;3.25;;;2.70;;
21503;SDS011;10913;51.992;9.228;2022-11-15T10:29:41;4.32;;;2.70;;
21503;SDS011;10913;51.992;9.228;2022-11-15T10:32:15;5.28;;;3.05;;
21503;SDS011;10913;51.992;9.228;2022-11-15T10:34:45;4.88;;;2.67;;
21503;SDS011;10913;51.992;9.228;2022-11-15T10:37:11;3.78;;;3.20;;
21503;SDS011;10913;51.992;9.228;2022-11-15T10:39:36;3.10;;;2.70;;
21503;SDS011;10913;51.992;9.228;2022-11-15T10:42:22;3.42;;;3.00;;
21503;SDS011;10913;51.992;9.228;2022-11-15T10:44:52;4.57;;;3.05;;
21503;SDS011;10913;51.992;9.228;2022-11-15T10:49:54;7.28;;;3.22;;
21503;SDS011;10913;51.992;9.228;2022-11-15T10:52:24;3.95;;;2.92;;
21503;SDS011;10913;51.992;9.228;2022-11-15T10:54:55;5.18;;;3.35;;
21503;SDS011;10913;51.992;9.228;2022-11-15T10:59:56;2.97;;;2.45;;
21503;SDS011;10913;51.992;9.228;2022-11-15T11:02:36;4.00;;;2.70;;
21503;SDS011;10913;51.992;9.228;2022-11-15T11:05:05;4.25;;;2.80;;
21503;SDS011;10913;51.992;9.228;2022-11-15T11:07:55;3.30;;;2.70;;
21503;SDS011;10913;51.992;9.228;2022-11-15T11:11:13;4.50;;;2.90;;
21503;SDS011;10913;51.992;9.228;2022-11-15T11:21:29;3.25;;;2.58;;
21503;SDS011;10913;51.992;9.228;2022-11-15T11:35:35;3.60;;;2.83;;
21503;SDS011;10913;51.992;9.228;2022-11-15T11:50:53;4.20;;;2.92;;
21503;SDS011;10913;51.992;9.228;2022-11-15T11:53:45;3.00;;;2.70;;
21503;SDS011;10913;51.992;9.228;2022-11-15T11:56:33;3.38;;;2.33;;
21503;SDS011;10913;51.992;9.228;2022-11-15T12:01:53;4.13;;;2.60;;
21503;SDS011;10913;51.992;9.228;2022-11-15T12:07:08;3.17;;;2.35;;
21503;SDS011;10913;51.992;9.228;2022-11-15T12:17:34;2.38;;;2.17;;
21503;SDS011;10913;51.992;9.228;2022-11-15T12:20:03;3.60;;;2.40;;
21503;SDS011;10913;51.992;9.228;2022-11-15T12:22:42;3.30;;;3.00;;
21503;SDS011;10913;51.992;9.228;2022-11-15T12:36:04;3.33;;;2.80;;
21503;SDS011;10913;51.992;9.228;2022-11-15T12:41:17;4.50;;;3.80;;
21503;SDS011;10913;51.992;9.228;2022-11-15T12:43:44;4.05;;;3.08;;
21503;SDS011;10913;51.992;9.228;2022-11-15T12:54:59;2.58;;;2.20;;
21503;SDS011;10913;51.992;9.228;2022-11-15T13:04:52;2.70;;;2.00;;
21503;SDS011;10913;51.992;9.228;2022-11-15T13:09:59;2.97;;;2.45;;
21503;SDS011;10913;51.992;9.228;2022-11-15T13:15:00;3.50;;;2.20;;
21503;SDS011;10913;51.992;9.228;2022-11-15T13:17:53;3.17;;;2.40;;
21503;SDS011;10913;51.992;9.228;2022-11-15T13:23:12;5.32;;;2.80;;
21503;SDS011;10913;51.992;9.228;2022-11-15T13:29:12;4.15;;;2.70;;
21503;SDS011;10913;51.992;9.228;2022-11-15T13:31:40;4.30;;;3.03;;
21503;SDS011;10913;51.992;9.228;2022-11-15T13:37:01;3.78;;;3.28;;
21503;SDS011;10913;51.992;9.228;2022-11-15T13:39:33;7.78;;;3.72;;
21503;SDS011;10913;51.992;9.228;2022-11-15T13:42:02;5.95;;;3.90;;
21503;SDS011;10913;51.992;9.228;2022-11-15T13:44:29;5.65;;;3.70;;
21503;SDS011;10913;51.992;9.228;2022-11-15T13:47:13;3.92;;;3.45;;
21503;SDS011;10913;51.992;9.228;2022-11-15T13:49:39;6.05;;;3.70;;
21503;SDS011;10913;51.992;9.228;2022-11-15T13:52:06;5.00;;;3.40;;
21503;SDS011;10913;51.992;9.228;2022-11-15T13:59:46;5.30;;;3.83;;
21503;SDS011;10913;51.992;9.228;2022-11-15T14:02:15;6.47;;;4.20;;
21503;SDS011;10913;51.992;9.228;2022-11-15T14:04:54;4.63;;;3.95;;
21503;SDS011;10913;51.992;9.228;2022-11-15T14:07:22;4.65;;;3.58;;
21503;SDS011;10913;51.992;9.228;2022-11-15T14:09:51;4.00;;;3.55;;
21503;SDS011;10913;51.992;9.228;2022-11-15T14:12:22;3.65;;;3.35;;
21503;SDS011;10913;51.992;9.228;2022-11-15T14:14:48;6.32;;;3.85;;
21503;SDS011;10913;51.992;9.228;2022-11-15T14:19:54;5.30;;;3.70;;
21503;SDS011;10913;51.992;9.228;2022-11-15T14:22:21;5.38;;;3.80;;
21503;SDS011;10913;51.992;9.228;2022-11-15T14:28:11;5.03;;;4.20;;
21503;SDS011;10913;51.992;9.228;2022-11-15T14:30:41;4.22;;;3.60;;
21503;SDS011;10913;51.992;9.228;2022-11-15T14:33:25;4.18;;;3.15;;
21503;SDS011;10913;51.992;9.228;2022-11-15T14:38:37;4.05;;;2.70;;
21503;SDS011;10913;51.992;9.228;2022-11-15T14:41:03;4.82;;;3.35;;
21503;SDS011;10913;51.992;9.228;2022-11-15T14:43:28;4.30;;;3.10;;
21503;SDS011;10913;51.992;9.228;2022-11-15T14:45:54;5.40;;;3.30;;
21503;SDS011;10913;51.992;9.228;2022-11-15T14:48:19;6.85;;;3.50;;
21503;SDS011;10913;51.992;9.228;2022-11-15T14:50:45;6.90;;;4.80;;
21503;SDS011;10913;51.992;9.228;2022-11-15T14:53:14;8.68;;;5.55;;
21503;SDS011;10913;51.992;9.228;2022-11-15T14:55:42;8.95;;;5.50;;
21503;SDS011;10913;51.992;9.228;2022-11-15T14:58:08;7.60;;;5.07;;
21503;SDS011;10913;51.992;9.228;2022-11-15T15:00:38;6.90;;;5.00;;
21503;SDS011;10913;51.992;9.228;2022-11-15T15:03:04;4.53;;;3.97;;
21503;SDS011;10913;51.992;9.228;2022-11-15T15:05:34;5.47;;;4.20;;
21503;SDS011;10913;51.992;9.228;2022-11-15T15:08:05;3.88;;;3.03;;
21503;SDS011;10913;51.992;9.228;2022-11-15T15:10:32;4.65;;;3.30;;
21503;SDS011;10913;51.992;9.228;2022-11-15T15:13:00;3.72;;;3.25;;
21503;SDS011;10913;51.992;9.228;2022-11-15T15:15:29;4.30;;;2.70;;
21503;SDS011;10913;51.992;9.228;2022-11-15T15:17:58;4.32;;;3.50;;
21503;SDS011;10913;51.992;9.228;2022-11-15T15:20:23;4.70;;;3.55;;
21503;SDS011;10913;51.992;9.228;2022-11-15T15:22:48;5.00;;;2.97;;
21503;SDS011;10913;51.992;9.228;2022-11-15T15:25:18;3.45;;;2.40;;
21503;SDS011;10913;51.992;9.228;2022-11-15T15:27:54;2.50;;;2.30;;
21503;SDS011;10913;51.992;9.228;2022-11-15T15:30:20;4.22;;;2.88;;
21503;SDS011;10913;51.992;9.228;2022-11-15T15:32:46;3.88;;;3.10;;
21503;SDS011;10913;51.992;9.228;2022-11-15T15:35:12;3.65;;;3.33;;
21503;SDS011;10913;51.992;9.228;2022-11-15T15:37:39;3.90;;;3.00;;
21503;SDS011;10913;51.992;9.228;2022-11-15T15:40:13;3.33;;;2.83;;
21503;SDS011;10913;51.992;9.228;2022-11-15T15:42:49;5.03;;;3.50;;
21503;SDS011;10913;51.992;9.228;2022-11-15T15:45:15;5.50;;;3.40;;
21503;SDS011;10913;51.992;9.228;2022-11-15T15:47:42;5.70;;;3.30;;
21503;SDS011;10913;51.992;9.228;2022-11-15T15:50:20;4.25;;;3.20;;
21503;SDS011;10913;51.992;9.228;2022-11-15T15:52:48;3.65;;;3.35;;
21503;SDS011;10913;51.992;9.228;2022-11-15T15:55:14;4.38;;;3.30;;
21503;SDS011;10913;51.992;9.228;2022-11-15T15:57:40;3.80;;;3.45;;
21503;SDS011;10913;51.992;9.228;2022-11-15T16:00:06;4.68;;;3.22;;
21503;SDS011;10913;51.992;9.228;2022-11-15T16:02:32;3.80;;;3.40;;
21503;SDS011;10913;51.992;9.228;2022-11-15T16:04:57;3.72;;;3.30;;
21503;SDS011;10913;51.992;9.228;2022-11-15T16:07:22;3.70;;;3.40;;
21503;SDS011;10913;51.992;9.228;2022-11-15T16:09:48;3.70;;;3.40;;
21503;SDS011;10913;51.992;9.228;2022-11-15T16:12:27;3.90;;;3.35;;
21503;SDS011;10913;51.992;9.228;2022-11-15T16:14:54;5.05;;;3.75;;
21503;SDS011;10913;51.992;9.228;2022-11-15T16:17:20;4.32;;;3.92;;
21503;SDS011;10913;51.992;9.228;2022-11-15T16:19:47;5.50;;;4.25;;
21503;SDS011;10913;51.992;9.228;2022-11-15T16:22:13;6.15;;;4.32;;
21503;SDS011;10913;51.992;9.228;2022-11-15T16:24:38;5.57;;;4.60;;
21503;SDS011;10913;51.992;9.228;2022-11-15T16:27:04;7.78;;;5.38;;
21503;SDS011;10913;51.992;9.228;2022-11-15T16:29:29;9.05;;;6.50;;
21503;SDS011;10913;51.992;9.228;2022-11-15T16:31:55;8.82;;;5.97;;
21503;SDS011;10913;51.992;9.228;2022-11-15T16:34:20;7.10;;;5.35;;
21503;SDS011;10913;51.992;9.228;2022-11-15T16:36:47;5.32;;;4.40;;
21503;SDS011;10913;51.992;9.228;2022-11-15T16:39:12;5.60;;;4.30;;
21503;SDS011;10913;51.992;9.228;2022-11-15T16:41:38;7.35;;;6.00;;
21503;SDS011;10913;51.992;9.228;2022-11-15T16:44:04;5.63;;;4.40;;
21503;SDS011;10913;51.992;9.228;2022-11-15T16:46:30;5.43;;;4.28;;
21503;SDS011;10913;51.992;9.228;2022-11-15T16:48:55;6.55;;;5.55;;
21503;SDS011;10913;51.992;9.228;2022-11-15T16:51:21;5.82;;;4.90;;
21503;SDS011;10913;51.992;9.228;2022-11-15T16:53:47;6.07;;;4.10;;
21503;SDS011;10913;51.992;9.228;2022-11-15T16:56:17;6.80;;;4.40;;
21503;SDS011;10913;51.992;9.228;2022-11-15T16:58:53;4.90;;;4.07;;
21503;SDS011;10913;51.992;9.228;2022-11-15T17:01:32;6.45;;;4.03;;
21503;SDS011;10913;51.992;9.228;2022-11-15T17:03:59;6.65;;;4.00;;
21503;SDS011;10913;51.992;9.228;2022-11-15T17:06:37;8.73;;;4.50;;
21503;SDS011;10913;51.992;9.228;2022-11-15T17:09:07;5.10;;;4.20;;
21503;SDS011;10913;51.992;9.228;2022-11-15T17:11:36;6.28;;;4.88;;
21503;SDS011;10913;51.992;9.228;2022-11-15T17:14:01;6.00;;;5.40;;
21503;SDS011;10913;51.992;9.228;2022-11-15T17:16:27;6.18;;;5.20;;
21503;SDS011;10913;51.992;9.228;2022-11-15T17:18:52;6.38;;;4.93;;
21503;SDS011;10913;51.992;9.228;2022-11-15T17:21:19;6.78;;;6.07;;
21503;SDS011;10913;51.992;9.228;2022-11-15T17:23:46;6.22;;;5.10;;
21503;SDS011;10913;51.992;9.228;2022-11-15T17:26:12;6.03;;;4.85;;
21503;SDS011;10913;51.992;9.228;2022-11-15T17:28:39;6.35;;;4.63;;
21503;SDS011;10913;51.992;9.228;2022-11-15T17:31:06;5.50;;;4.40;;